DGAA/ACC METAR and TAF weather

Enter ICAO airport designator
Station Type Date Time Source
DGAA METAR 2019/05/27 09:00 UTC NOAA

DGAA 270900Z 29003KT 9999 FEW024 FEW028CB BKN046 29/24 Q1013 NOSIG


Station Type Date Time Source
DGAA Decoded METAR 2019/05/27 09:00 UTC NOAA

Accra, Ghana (DGAA) 05-36N 000-10W 69M
May 27, 2019 - 05:00 AM EDT / 2019.05.27 0900 UTC
Wind: from the WNW (290 degrees) at 3 MPH (3 KT):0
Visibility: greater than 7 mile(s):0
Sky conditions: mostly cloudy
Weather: Cumulonimbus clouds observed
Temperature: 84 F (29 C)
Dew Point: 75 F (24 C)
Relative Humidity: 74%
Pressure (altimeter): 29.91 in. Hg (1013 hPa)
ob: DGAA 270900Z 29003KT 9999 FEW024 FEW028CB BKN046 29/24 Q1013 NOSIG
cycle: 9

Station Type Date Time Source
DGAA TAF 2019/05/27 06:25 UTC NOAA

TAF DGAA 270500Z 2706/2812 28010KT 9999 BKN011
TEMPO 2706/2712 5000 -TSRA FEW030CB
BECMG 2712/2714 18010KT SCT017
BECMG 2722/2800 27010KT
BECMG 2804/2806 8000

Example: see airport list